Ulm, Montana
Current Conditions -  °F | °C
As of 9:53 AM on Sunday 23 Nov 2014 (Local Time) from KGTF Reporting Station
Clear Clear  
Wind Chill: 26°   Ceiling: Unl
Heat Index: 35°   Visibility: 10mi
Dew Point: 21°   Wind: 15mph
Humidity: 57%   Direction: 240°WSW
Pressure: 29.9"   Gusts: NA
Location:  47.43°N, 111.51°W
Report Text: KGTF 231653Z 24013KT 10SM CLR 02/M06 A2990 RMK AO2 SLP160 T00171061
Loading
Personal Weather Stations






























Interactive Weather Map New forecast layout! Learn more

10-Day Weather Forecast

Advertisements
Track Severe Weather on mobile